Time;durP1;ratioP1;P1;durP2;ratioP2;P2;SDS_P1;SDS_P2;PMS_P1;PMS_P2;Temp;Humidity;BMP_temperature;BMP_pressure;BME280_temperature;BME280_humidity;BME280_pressure;Samples;Min_cycle;Max_cycle;Signal;HPM_P1;HPM_P2
2023/12/09 00:01:33;;;;;;;37.50;17.83;;;3.40;99.90;;;;;;6211735;23;20432;-63
2023/12/09 00:03:59;;;;;;;29.57;16.83;;;3.40;99.90;;;;;;6211343;23;20443;-66
2023/12/09 00:06:26;;;;;;;28.37;15.70;;;3.40;99.90;;;;;;6210535;23;20436;-65
2023/12/09 00:08:53;;;;;;;34.67;15.57;;;3.50;99.90;;;;;;6210062;23;20407;-65
2023/12/09 00:11:21;;;;;;;32.27;15.43;;;3.50;99.90;;;;;;6209270;23;20428;-60
2023/12/09 00:13:48;;;;;;;34.67;15.60;;;3.40;99.90;;;;;;6210302;23;20413;-63
2023/12/09 00:16:18;;;;;;;33.80;18.07;;;3.40;99.90;;;;;;6209324;23;20420;-64
2023/12/09 00:18:45;;;;;;;30.70;15.97;;;3.40;99.90;;;;;;6209721;23;20416;-63
2023/12/09 00:21:12;;;;;;;32.10;16.00;;;3.40;99.90;;;;;;6209811;23;20413;-63
2023/12/09 00:23:39;;;;;;;39.87;17.87;;;3.40;99.90;;;;;;6209757;23;20451;-65
2023/12/09 00:26:06;;;;;;;25.67;14.60;;;3.40;99.90;;;;;;6210096;23;20400;-65
2023/12/09 00:28:35;;;;;;;32.70;16.43;;;3.50;99.90;;;;;;6209768;23;20420;-64
2023/12/09 00:31:02;;;;;;;33.17;19.37;;;3.40;99.90;;;;;;6209516;23;20700;-65
2023/12/09 00:33:29;;;;;;;37.07;20.87;;;3.50;99.90;;;;;;6209676;23;20401;-65
2023/12/09 00:35:56;;;;;;;35.10;18.47;;;3.50;99.90;;;;;;6208501;23;20492;-65
2023/12/09 00:38:23;;;;;;;30.90;17.93;;;3.50;99.90;;;;;;6207935;23;20416;-65
2023/12/09 00:40:52;;;;;;;29.67;15.80;;;3.40;99.90;;;;;;6208077;23;20389;-63
2023/12/09 00:43:19;;;;;;;36.87;19.13;;;3.50;99.90;;;;;;6207879;23;20431;-65
2023/12/09 00:45:47;;;;;;;37.07;16.07;;;3.50;99.90;;;;;;6208769;23;20420;-68
2023/12/09 00:48:14;;;;;;;41.87;18.00;;;3.50;99.90;;;;;;6208748;23;20483;-64
2023/12/09 00:50:43;;;;;;;34.37;16.37;;;3.50;99.90;;;;;;6209862;23;20437;-64
2023/12/09 00:53:10;;;;;;;30.47;13.13;;;3.50;99.90;;;;;;6208614;23;20481;-64
2023/12/09 00:55:36;;;;;;;34.63;18.03;;;3.40;99.90;;;;;;6209106;23;20451;-64
2023/12/09 00:58:03;;;;;;;39.27;20.00;;;3.50;99.90;;;;;;6209937;23;20391;-64
2023/12/09 01:00:30;;;;;;;35.43;17.57;;;3.50;99.90;;;;;;6209458;23;20411;-63
2023/12/09 01:02:58;;;;;;;34.13;15.90;;;3.50;99.90;;;;;;6209332;23;20392;-64
2023/12/09 01:05:25;;;;;;;37.73;16.77;;;3.50;99.90;;;;;;6209592;23;20424;-63
2023/12/09 01:07:52;;;;;;;30.93;14.10;;;3.50;99.90;;;;;;6209869;23;20428;-63
2023/12/09 01:10:19;;;;;;;34.33;16.70;;;3.60;99.90;;;;;;6209013;23;20440;-63
2023/12/09 01:12:46;;;;;;;34.47;15.63;;;3.60;99.90;;;;;;6209976;23;20401;-65
2023/12/09 01:15:15;;;;;;;28.47;15.10;;;3.60;99.90;;;;;;6210401;23;20413;-67
2023/12/09 01:17:41;;;;;;;34.57;16.00;;;3.60;99.90;;;;;;6210088;23;20465;-65
2023/12/09 01:20:11;;;;;;;27.03;15.37;;;3.60;99.90;;;;;;6210303;23;20389;-65
2023/12/09 01:22:38;;;;;;;32.57;14.53;;;3.60;99.90;;;;;;6210323;23;20428;-63
2023/12/09 01:25:06;;;;;;;28.07;15.90;;;3.60;99.90;;;;;;6210278;23;20413;-65
2023/12/09 01:27:33;;;;;;;34.50;18.20;;;3.60;99.90;;;;;;6210483;23;20401;-64
2023/12/09 01:30:00;;;;;;;34.20;18.10;;;3.60;99.90;;;;;;6210484;23;20429;-62
2023/12/09 01:32:27;;;;;;;31.90;16.23;;;3.60;99.90;;;;;;6210329;23;20404;-63
2023/12/09 01:34:55;;;;;;;29.83;13.10;;;3.70;99.90;;;;;;6210286;23;20429;-62
2023/12/09 01:37:24;;;;;;;29.37;14.30;;;3.70;99.90;;;;;;6210106;23;20404;-63
2023/12/09 01:39:51;;;;;;;25.17;13.07;;;3.70;99.90;;;;;;6212870;23;20400;-63
2023/12/09 01:42:19;;;;;;;32.13;16.13;;;3.70;99.90;;;;;;6212982;23;20416;-65
2023/12/09 01:44:45;;;;;;;25.37;14.20;;;3.70;99.90;;;;;;6212939;23;20480;-66
2023/12/09 01:47:13;;;;;;;31.40;17.47;;;3.70;99.90;;;;;;6212135;23;20425;-65
2023/12/09 01:49:40;;;;;;;23.13;14.40;;;3.70;99.90;;;;;;6211634;23;20424;-64
2023/12/09 01:52:07;;;;;;;27.87;15.27;;;3.70;99.90;;;;;;6211246;23;20401;-65
2023/12/09 01:54:36;;;;;;;28.33;14.37;;;3.70;99.90;;;;;;6210934;23;20433;-65
2023/12/09 01:57:03;;;;;;;24.17;12.93;;;3.60;99.90;;;;;;6210551;23;20443;-63
2023/12/09 01:59:31;;;;;;;27.07;14.53;;;3.60;99.90;;;;;;6211136;23;20444;-65
2023/12/09 02:01:58;;;;;;;31.30;15.43;;;3.60;99.90;;;;;;6211620;23;20425;-64
2023/12/09 02:04:25;;;;;;;27.07;14.40;;;3.60;99.90;;;;;;6211752;23;20404;-65
2023/12/09 02:06:52;;;;;;;31.70;17.80;;;3.70;99.90;;;;;;6212585;23;20433;-64
2023/12/09 02:09:19;;;;;;;38.40;18.57;;;3.70;99.90;;;;;;6212446;23;20389;-63
2023/12/09 02:11:53;;;;;;;40.07;16.27;;;3.70;99.90;;;;;;6212145;23;20413;-62
2023/12/09 02:14:24;;;;;;;31.80;15.23;;;3.70;99.90;;;;;;6212425;23;20435;-65
2023/12/09 02:16:57;;;;;;;30.97;15.20;;;3.70;99.90;;;;;;6212963;23;20381;-61
2023/12/09 02:19:26;;;;;;;27.87;16.70;;;3.70;99.90;;;;;;6212289;23;20405;-61
2023/12/09 02:22:04;;;;;;;27.47;15.90;;;3.70;99.90;;;;;;6213223;23;20436;-64
2023/12/09 02:24:33;;;;;;;24.90;13.20;;;3.70;99.90;;;;;;6213704;23;20428;-63
2023/12/09 02:27:09;;;;;;;29.53;15.70;;;3.70;99.90;;;;;;6214480;23;20392;-64
2023/12/09 02:29:47;;;;;;;33.27;17.93;;;3.70;99.90;;;;;;6214078;23;20395;-62
2023/12/09 02:32:17;;;;;;;27.13;14.50;;;3.70;99.90;;;;;;6214152;23;20365;-61
2023/12/09 02:34:45;;;;;;;31.20;15.60;;;3.70;99.90;;;;;;6214140;23;20933;-64
2023/12/09 02:37:13;;;;;;;30.07;15.87;;;3.70;99.90;;;;;;6212933;23;20424;-65
2023/12/09 02:39:42;;;;;;;35.27;15.23;;;3.60;99.90;;;;;;6212557;23;20416;-64
2023/12/09 02:42:10;;;;;;;30.00;15.83;;;3.70;99.90;;;;;;6212374;23;20432;-61
2023/12/09 02:44:37;;;;;;;25.73;13.77;;;3.70;99.90;;;;;;6211705;23;20393;-64
2023/12/09 02:47:04;;;;;;;36.17;17.13;;;3.70;99.90;;;;;;6211585;23;20409;-65
2023/12/09 02:49:31;;;;;;;31.03;15.20;;;3.70;99.90;;;;;;6211172;23;20417;-64
2023/12/09 02:51:58;;;;;;;29.80;15.93;;;3.70;99.90;;;;;;6211025;23;20412;-64
2023/12/09 02:54:25;;;;;;;28.20;16.13;;;3.70;99.90;;;;;;6210982;23;20412;-65
2023/12/09 02:56:55;;;;;;;37.73;18.00;;;3.70;99.90;;;;;;6211032;23;20407;-64
2023/12/09 02:59:22;;;;;;;29.07;15.50;;;3.80;99.90;;;;;;6210418;23;20409;-65
2023/12/09 03:01:49;;;;;;;35.17;16.57;;;3.80;99.90;;;;;;6211102;23;20428;-65
2023/12/09 03:04:18;;;;;;;35.27;17.67;;;3.80;99.90;;;;;;6209888;23;20405;-64
2023/12/09 03:06:45;;;;;;;29.87;15.17;;;3.80;99.90;;;;;;6210326;23;20439;-64
2023/12/09 03:09:12;;;;;;;34.63;17.23;;;3.80;99.90;;;;;;6210153;23;20409;-66
2023/12/09 03:11:39;;;;;;;31.63;16.10;;;3.80;99.90;;;;;;6210001;23;20452;-64
2023/12/09 03:14:09;;;;;;;36.20;16.20;;;3.80;99.90;;;;;;6210707;23;20425;-66
2023/12/09 03:16:37;;;;;;;39.17;17.30;;;3.80;99.90;;;;;;6210581;23;20447;-64
2023/12/09 03:19:04;;;;;;;24.70;13.80;;;3.80;99.90;;;;;;6210110;23;20432;-65
2023/12/09 03:21:31;;;;;;;31.07;15.77;;;3.80;99.90;;;;;;6209930;23;20385;-65
2023/12/09 03:23:58;;;;;;;31.83;15.10;;;3.80;99.90;;;;;;6210752;23;20468;-62
2023/12/09 03:26:26;;;;;;;27.67;15.87;;;3.80;99.90;;;;;;6210044;23;20425;-64
2023/12/09 03:28:53;;;;;;;28.00;15.47;;;3.80;99.90;;;;;;6210206;23;20421;-64
2023/12/09 03:31:24;;;;;;;26.87;14.73;;;3.80;99.90;;;;;;6209852;23;20448;-66
2023/12/09 03:33:51;;;;;;;30.93;14.97;;;3.80;99.90;;;;;;6210411;23;20419;-65
2023/12/09 03:36:18;;;;;;;37.30;16.20;;;3.80;99.90;;;;;;6210270;23;20389;-64
2023/12/09 03:38:45;;;;;;;32.23;16.63;;;3.80;99.90;;;;;;6209698;23;20425;-65
2023/12/09 03:41:12;;;;;;;30.70;15.20;;;3.80;99.90;;;;;;6210350;23;20400;-64
2023/12/09 03:43:39;;;;;;;34.23;16.67;;;3.80;99.90;;;;;;6209646;23;20440;-65
2023/12/09 03:46:06;;;;;;;34.93;16.87;;;3.80;99.90;;;;;;6209918;23;20440;-64
2023/12/09 03:48:34;;;;;;;44.07;18.70;;;3.80;99.90;;;;;;6210371;23;20401;-64
2023/12/09 03:51:01;;;;;;;32.90;15.73;;;3.80;99.90;;;;;;6209203;23;20448;-63
2023/12/09 03:53:29;;;;;;;37.67;18.10;;;3.80;99.90;;;;;;6210061;23;20413;-65
2023/12/09 03:55:57;;;;;;;36.33;16.53;;;3.80;99.90;;;;;;6209793;23;20413;-64
2023/12/09 03:58:25;;;;;;;33.20;16.23;;;3.80;99.90;;;;;;6209187;23;20416;-64
2023/12/09 04:00:55;;;;;;;38.60;16.30;;;3.80;99.90;;;;;;6209755;23;20413;-65
2023/12/09 04:03:22;;;;;;;37.20;17.30;;;3.80;99.90;;;;;;6209049;23;20432;-63
2023/12/09 04:05:50;;;;;;;36.93;17.33;;;3.80;99.90;;;;;;6209501;23;20412;-64
2023/12/09 04:08:17;;;;;;;37.30;16.00;;;3.80;99.90;;;;;;6209556;23;20444;-64
2023/12/09 04:10:44;;;;;;;36.47;17.20;;;3.80;99.90;;;;;;6209886;23;20440;-65
2023/12/09 04:13:11;;;;;;;39.40;15.97;;;3.80;99.90;;;;;;6209826;23;20401;-64
2023/12/09 04:15:39;;;;;;;39.60;16.13;;;3.80;99.90;;;;;;6210203;23;20405;-64
2023/12/09 04:18:06;;;;;;;38.70;16.50;;;3.80;99.90;;;;;;6210892;23;20397;-63
2023/12/09 04:20:33;;;;;;;37.33;18.13;;;3.80;99.90;;;;;;6209568;23;20429;-65
2023/12/09 04:23:01;;;;;;;32.53;16.73;;;3.80;99.90;;;;;;6209801;23;20407;-65
2023/12/09 04:25:28;;;;;;;33.50;17.10;;;3.90;99.90;;;;;;6209486;23;20421;-65
2023/12/09 04:27:55;;;;;;;44.00;18.33;;;3.90;99.90;;;;;;6210362;23;20428;-64
2023/12/09 04:30:22;;;;;;;44.43;18.00;;;3.90;99.90;;;;;;6209727;23;20447;-63
2023/12/09 04:32:49;;;;;;;49.27;19.17;;;3.90;99.90;;;;;;6210337;23;20429;-64
2023/12/09 04:35:16;;;;;;;44.43;21.00;;;3.90;99.90;;;;;;6209866;23;20408;-65
2023/12/09 04:37:43;;;;;;;47.80;19.60;;;3.90;99.90;;;;;;6209544;23;20405;-63
2023/12/09 04:40:12;;;;;;;45.97;19.20;;;3.90;99.90;;;;;;6209233;23;20389;-66
2023/12/09 04:42:38;;;;;;;56.50;22.47;;;3.80;99.90;;;;;;6209417;23;20397;-68
2023/12/09 04:45:06;;;;;;;39.43;17.93;;;3.80;99.90;;;;;;6209786;23;20413;-64
2023/12/09 04:47:36;;;;;;;55.60;19.43;;;3.80;99.90;;;;;;6210171;23;20423;-65
2023/12/09 04:50:04;;;;;;;44.60;18.33;;;3.80;99.90;;;;;;6209102;23;20396;-64
2023/12/09 04:52:31;;;;;;;45.63;19.00;;;3.90;99.90;;;;;;6209473;23;20452;-64
2023/12/09 04:54:58;;;;;;;49.77;19.77;;;3.90;99.90;;;;;;6209435;23;20489;-64
2023/12/09 04:57:27;;;;;;;46.97;21.80;;;4.00;99.90;;;;;;6208466;23;20443;-62
2023/12/09 04:59:54;;;;;;;43.70;16.90;;;3.90;99.90;;;;;;6211036;23;20420;-64
2023/12/09 05:02:21;;;;;;;48.50;20.73;;;3.90;99.90;;;;;;6211501;23;20451;-64
2023/12/09 05:04:48;;;;;;;49.70;21.33;;;3.90;99.90;;;;;;6211667;23;20436;-65
2023/12/09 05:07:15;;;;;;;45.00;19.50;;;3.90;99.90;;;;;;6212363;23;20392;-64
2023/12/09 05:09:42;;;;;;;47.23;19.47;;;3.90;99.90;;;;;;6212384;23;20429;-64
2023/12/09 05:12:08;;;;;;;43.37;18.90;;;4.00;99.90;;;;;;6212871;23;20453;-63
2023/12/09 05:14:36;;;;;;;58.83;21.80;;;4.00;99.90;;;;;;6212147;23;20409;-64
2023/12/09 05:17:05;;;;;;;51.23;20.47;;;4.00;99.90;;;;;;6211307;23;20409;-62
2023/12/09 05:19:32;;;;;;;50.90;18.67;;;4.00;99.90;;;;;;6210217;23;20416;-62
2023/12/09 05:22:01;;;;;;;37.47;17.23;;;4.00;99.90;;;;;;6209669;23;20432;-64
2023/12/09 05:24:27;;;;;;;53.53;19.60;;;4.00;99.90;;;;;;6209092;23;20405;-64
2023/12/09 05:26:57;;;;;;;46.80;18.50;;;4.00;99.90;;;;;;6209718;23;20389;-63
2023/12/09 05:29:24;;;;;;;45.03;19.20;;;4.00;99.90;;;;;;6209378;23;20412;-64
2023/12/09 05:31:52;;;;;;;44.37;16.23;;;4.10;99.90;;;;;;6209307;23;20471;-64
2023/12/09 05:34:19;;;;;;;40.97;18.20;;;4.00;99.90;;;;;;6210026;23;20424;-65
2023/12/09 05:36:48;;;;;;;49.87;18.67;;;4.10;99.90;;;;;;6210146;23;20409;-64
2023/12/09 05:39:15;;;;;;;54.80;16.47;;;4.10;99.90;;;;;;6209314;23;20404;-64
2023/12/09 05:41:43;;;;;;;47.07;21.30;;;4.10;99.90;;;;;;6209519;23;20408;-64
2023/12/09 05:44:12;;;;;;;47.80;18.03;;;4.10;99.90;;;;;;6209957;23;20432;-64
2023/12/09 05:46:40;;;;;;;44.53;19.40;;;4.10;99.90;;;;;;6209416;23;20432;-65
2023/12/09 05:49:08;;;;;;;36.90;17.80;;;4.10;99.90;;;;;;6208941;23;20456;-64
2023/12/09 05:51:35;;;;;;;49.47;20.57;;;4.10;99.90;;;;;;6209287;23;20447;-63
2023/12/09 05:54:02;;;;;;;37.17;18.13;;;4.20;99.90;;;;;;6209320;23;20393;-62
2023/12/09 05:56:29;;;;;;;48.67;19.10;;;4.20;99.90;;;;;;6208430;23;20452;-64
2023/12/09 05:58:55;;;;;;;37.07;18.30;;;4.10;99.90;;;;;;6209439;23;20440;-62
2023/12/09 06:01:22;;;;;;;34.77;16.73;;;4.20;99.90;;;;;;6208607;23;20459;-63
2023/12/09 06:03:49;;;;;;;51.37;19.20;;;4.20;99.90;;;;;;6208938;23;20799;-64
2023/12/09 06:06:17;;;;;;;42.73;19.47;;;4.20;99.90;;;;;;6208499;23;20389;-64
2023/12/09 06:08:44;;;;;;;46.50;17.77;;;4.20;99.90;;;;;;6209022;23;20416;-64
2023/12/09 06:11:11;;;;;;;32.37;17.27;;;4.10;99.90;;;;;;6208546;23;20440;-64
2023/12/09 06:13:38;;;;;;;54.60;18.70;;;4.20;99.90;;;;;;6209726;23;20417;-63
2023/12/09 06:16:05;;;;;;;40.33;18.60;;;4.20;99.90;;;;;;6208586;23;20404;-65
2023/12/09 06:18:32;;;;;;;36.93;17.50;;;4.20;99.90;;;;;;6208915;23;20380;-64
2023/12/09 06:20:59;;;;;;;54.10;19.13;;;4.20;99.90;;;;;;6208817;23;20432;-63
2023/12/09 06:23:27;;;;;;;37.37;17.87;;;4.20;99.90;;;;;;6209353;23;20425;-65
2023/12/09 06:25:54;;;;;;;38.67;18.17;;;4.20;99.90;;;;;;6211431;23;20412;-64
2023/12/09 06:28:21;;;;;;;33.70;17.33;;;4.30;99.90;;;;;;6212352;23;20389;-64
2023/12/09 06:30:48;;;;;;;51.10;18.43;;;4.30;99.90;;;;;;6213573;23;20389;-62
2023/12/09 06:33:15;;;;;;;42.53;18.40;;;4.30;99.90;;;;;;6214019;23;20393;-59
2023/12/09 06:35:42;;;;;;;42.13;18.73;;;4.30;99.90;;;;;;6213943;23;20417;-61
2023/12/09 06:38:09;;;;;;;37.57;20.00;;;4.30;99.90;;;;;;6214096;23;20421;-65
2023/12/09 06:40:37;;;;;;;39.80;16.67;;;4.40;99.90;;;;;;6214394;23;20412;-60
2023/12/09 06:43:04;;;;;;;37.90;16.60;;;4.40;99.90;;;;;;6213779;23;20385;-64
2023/12/09 06:45:31;;;;;;;38.10;18.07;;;4.30;99.90;;;;;;6213239;23;20415;-64
2023/12/09 06:47:58;;;;;;;38.30;16.53;;;4.30;99.90;;;;;;6212603;23;20433;-63
2023/12/09 06:50:28;;;;;;;36.63;15.90;;;4.30;99.90;;;;;;6212915;23;20440;-65
2023/12/09 06:52:55;;;;;;;36.03;16.57;;;4.30;99.90;;;;;;6212549;23;20463;-61
2023/12/09 06:55:22;;;;;;;35.70;17.10;;;4.40;99.90;;;;;;6212556;23;20386;-60
2023/12/09 06:57:50;;;;;;;41.47;16.40;;;4.40;99.90;;;;;;6211602;23;20385;-62
2023/12/09 07:00:18;;;;;;;43.50;17.77;;;4.40;99.90;;;;;;6210443;23;20455;-63
2023/12/09 07:02:45;;;;;;;37.23;17.00;;;4.40;99.90;;;;;;6210669;23;20389;-62
2023/12/09 07:05:13;;;;;;;37.10;17.90;;;4.40;99.90;;;;;;6210435;23;20401;-63
2023/12/09 07:07:40;;;;;;;42.60;16.07;;;4.50;99.90;;;;;;6210194;23;20457;-65
2023/12/09 07:10:08;;;;;;;34.33;16.37;;;4.40;99.90;;;;;;6210439;23;20428;-65
2023/12/09 07:12:35;;;;;;;26.80;15.07;;;4.40;99.90;;;;;;6210363;23;20429;-64
2023/12/09 07:15:09;;;;;;;41.23;15.53;;;4.40;99.90;;;;;;6210600;23;20412;-64
2023/12/09 07:17:37;;;;;;;30.20;15.80;;;4.50;99.90;;;;;;6210684;23;20441;-65
2023/12/09 07:20:05;;;;;;;43.80;19.10;;;4.50;99.90;;;;;;6210749;23;20385;-63
2023/12/09 07:22:32;;;;;;;40.00;17.83;;;4.40;99.90;;;;;;6210663;23;20393;-63
2023/12/09 07:24:59;;;;;;;41.17;19.50;;;4.50;99.90;;;;;;6210144;23;20436;-63
2023/12/09 07:27:26;;;;;;;37.43;19.30;;;4.40;99.90;;;;;;6210706;23;20396;-65
2023/12/09 07:29:53;;;;;;;29.40;14.90;;;4.50;99.90;;;;;;6210377;23;20460;-64
2023/12/09 07:32:21;;;;;;;37.43;16.17;;;4.50;99.90;;;;;;6210880;23;20424;-64
2023/12/09 07:34:48;;;;;;;30.43;16.00;;;4.50;99.90;;;;;;6210546;23;20405;-64
2023/12/09 07:37:15;;;;;;;33.67;15.63;;;4.50;99.90;;;;;;6211087;23;20436;-63
2023/12/09 07:39:42;;;;;;;31.07;16.33;;;4.50;99.90;;;;;;6211979;23;20412;-64
2023/12/09 07:42:09;;;;;;;33.97;17.90;;;4.50;99.90;;;;;;6211319;23;20429;-64
2023/12/09 07:44:36;;;;;;;29.20;15.70;;;4.50;99.90;;;;;;6211137;23;20404;-64
2023/12/09 07:47:03;;;;;;;29.27;13.57;;;4.50;99.90;;;;;;6212055;23;20405;-64
2023/12/09 07:49:31;;;;;;;27.80;15.23;;;4.50;99.90;;;;;;6211621;23;20475;-65
2023/12/09 07:51:58;;;;;;;32.57;16.20;;;4.60;99.90;;;;;;6210723;23;20464;-64
2023/12/09 07:54:25;;;;;;;33.80;15.80;;;4.60;99.90;;;;;;6209923;23;20716;-65
2023/12/09 07:56:52;;;;;;;28.00;15.30;;;4.70;99.90;;;;;;6210213;23;20409;-65
2023/12/09 07:59:21;;;;;;;31.53;14.23;;;4.70;99.90;;;;;;6210777;23;20405;-65
2023/12/09 08:01:48;;;;;;;32.73;13.97;;;4.60;99.90;;;;;;6210235;23;20427;-65
2023/12/09 08:04:15;;;;;;;29.90;15.30;;;4.60;99.90;;;;;;6209671;23;20409;-65
2023/12/09 08:06:43;;;;;;;30.57;15.00;;;4.60;99.90;;;;;;6210554;23;20421;-65
2023/12/09 08:09:10;;;;;;;25.53;14.93;;;4.70;99.90;;;;;;6209809;23;20370;-65
2023/12/09 08:11:37;;;;;;;25.17;12.60;;;4.60;99.90;;;;;;6209447;23;20487;-65
2023/12/09 08:14:04;;;;;;;26.17;14.10;;;4.60;99.90;;;;;;6209680;23;20409;-66
2023/12/09 08:16:31;;;;;;;26.63;14.57;;;4.60;99.90;;;;;;6209773;23;20405;-65
2023/12/09 08:18:58;;;;;;;28.30;14.70;;;4.70;99.90;;;;;;6209527;23;20459;-65
2023/12/09 08:21:25;;;;;;;29.17;14.87;;;4.70;99.90;;;;;;6209042;23;20401;-64
2023/12/09 08:23:54;;;;;;;25.83;12.67;;;4.80;99.90;;;;;;6209431;23;20408;-64
2023/12/09 08:26:21;;;;;;;22.70;13.20;;;4.70;99.90;;;;;;6209282;23;20400;-64
2023/12/09 08:28:48;;;;;;;21.77;13.20;;;4.80;99.90;;;;;;6209225;23;20488;-65
2023/12/09 08:31:15;;;;;;;26.43;14.27;;;4.80;99.90;;;;;;6209884;23;20456;-64
2023/12/09 08:33:41;;;;;;;23.67;12.13;;;4.90;99.90;;;;;;6209889;23;20416;-62
2023/12/09 08:36:09;;;;;;;23.57;13.70;;;4.90;99.90;;;;;;6209540;23;20828;-62
2023/12/09 08:38:36;;;;;;;22.60;12.47;;;4.90;99.90;;;;;;6209097;23;20465;-66
2023/12/09 08:41:05;;;;;;;32.70;12.47;;;5.00;99.90;;;;;;6209605;23;20420;-64
2023/12/09 08:43:32;;;;;;;24.20;11.77;;;5.00;99.90;;;;;;6209828;23;20432;-65
2023/12/09 08:45:58;;;;;;;22.17;12.53;;;5.00;99.90;;;;;;6209608;23;20416;-67
2023/12/09 08:48:25;;;;;;;25.13;11.80;;;4.90;99.90;;;;;;6209513;23;20405;-66
2023/12/09 08:50:52;;;;;;;23.10;12.37;;;5.00;99.90;;;;;;6209799;23;20409;-63
2023/12/09 08:53:19;;;;;;;20.63;11.93;;;5.00;99.90;;;;;;6210115;23;20530;-65
2023/12/09 08:55:46;;;;;;;31.00;15.00;;;5.10;99.90;;;;;;6210283;23;20799;-64
2023/12/09 08:58:16;;;;;;;25.33;13.57;;;5.10;99.90;;;;;;6209904;23;20444;-64
2023/12/09 09:00:43;;;;;;;32.67;16.27;;;5.10;99.90;;;;;;6210459;23;20427;-66
2023/12/09 09:03:10;;;;;;;23.90;13.40;;;5.20;99.90;;;;;;6209631;23;20397;-65
2023/12/09 09:05:38;;;;;;;27.90;14.23;;;5.20;99.90;;;;;;6209863;23;20404;-63
2023/12/09 09:08:06;;;;;;;26.07;15.10;;;5.20;99.90;;;;;;6209926;23;20521;-64
2023/12/09 09:10:33;;;;;;;25.93;14.40;;;5.10;99.90;;;;;;6210148;23;20401;-67
2023/12/09 09:13:00;;;;;;;26.20;13.73;;;5.20;99.90;;;;;;6209357;23;20447;-64
2023/12/09 09:15:28;;;;;;;28.23;15.20;;;5.20;99.90;;;;;;6209504;23;20432;-60
2023/12/09 09:17:55;;;;;;;29.30;13.43;;;5.30;99.90;;;;;;6209207;23;20400;-65
2023/12/09 09:20:22;;;;;;;28.13;14.13;;;5.20;99.90;;;;;;6209128;23;20440;-65
2023/12/09 09:22:52;;;;;;;31.13;13.77;;;5.30;99.90;;;;;;6210060;23;20400;-64
2023/12/09 09:25:19;;;;;;;27.10;14.20;;;5.20;99.90;;;;;;6210876;23;20429;-65
2023/12/09 09:27:47;;;;;;;24.17;14.20;;;5.20;99.90;;;;;;6209655;23;20424;-63
2023/12/09 09:30:15;;;;;;;30.17;12.47;;;5.30;99.90;;;;;;6209125;23;20408;-65
2023/12/09 09:32:44;;;;;;;19.50;11.73;;;5.30;99.90;;;;;;6208373;23;20428;-64
2023/12/09 09:35:11;;;;;;;24.80;12.57;;;5.40;99.90;;;;;;6208459;23;20408;-65
2023/12/09 09:37:38;;;;;;;23.73;12.63;;;5.40;99.90;;;;;;6208999;23;20429;-63
2023/12/09 09:40:06;;;;;;;22.07;12.07;;;5.50;99.90;;;;;;6209501;23;20385;-64
2023/12/09 09:42:37;;;;;;;24.73;13.17;;;5.50;99.90;;;;;;6209347;23;20436;-64
2023/12/09 09:45:13;;;;;;;24.57;12.20;;;5.50;99.90;;;;;;6208251;23;20405;-63
2023/12/09 09:47:44;;;;;;;21.40;11.03;;;5.60;99.90;;;;;;6209138;23;20404;-65
2023/12/09 09:50:11;;;;;;;16.07;11.03;;;5.50;99.90;;;;;;6208254;23;20393;-64
2023/12/09 09:52:41;;;;;;;25.47;12.00;;;5.60;99.90;;;;;;6209600;23;20444;-64
2023/12/09 09:55:09;;;;;;;20.17;11.20;;;5.50;99.90;;;;;;6209239;23;20440;-65
2023/12/09 09:57:40;;;;;;;20.90;11.13;;;5.50;99.90;;;;;;6208666;23;20416;-63
2023/12/09 10:00:13;;;;;;;24.43;11.80;;;5.50;99.90;;;;;;6208798;23;20443;-64
2023/12/09 10:02:45;;;;;;;21.93;12.00;;;5.60;99.90;;;;;;6209851;23;20420;-63
2023/12/09 10:05:13;;;;;;;23.10;13.10;;;5.60;99.90;;;;;;6210365;23;20429;-63
2023/12/09 10:07:40;;;;;;;16.83;11.00;;;5.60;99.90;;;;;;6211126;23;20405;-63
2023/12/09 10:10:08;;;;;;;20.83;10.67;;;5.60;99.90;;;;;;6211155;23;20424;-65
2023/12/09 10:12:35;;;;;;;21.70;11.40;;;5.60;99.90;;;;;;6211063;23;20895;-64
2023/12/09 10:15:03;;;;;;;18.67;11.00;;;5.60;99.90;;;;;;6211907;23;20429;-64
2023/12/09 10:17:31;;;;;;;17.63;11.60;;;5.50;99.90;;;;;;6212346;23;20412;-64
2023/12/09 10:20:05;;;;;;;17.17;10.17;;;5.60;99.90;;;;;;6212581;23;20437;-64
2023/12/09 10:22:33;;;;;;;25.60;11.13;;;5.50;99.90;;;;;;6212800;23;20396;-63
2023/12/09 10:24:59;;;;;;;16.33;10.37;;;5.60;99.90;;;;;;6212263;23;20486;-65
2023/12/09 10:27:27;;;;;;;21.00;10.43;;;5.60;99.90;;;;;;6212899;23;20401;-66
2023/12/09 10:29:55;;;;;;;16.13;8.90;;;5.70;99.90;;;;;;6213421;23;20431;-65
2023/12/09 10:32:23;;;;;;;15.20;9.50;;;5.70;99.90;;;;;;6211235;23;20489;-64
2023/12/09 10:34:50;;;;;;;18.73;10.73;;;5.70;99.90;;;;;;6210692;23;20405;-63
2023/12/09 10:37:20;;;;;;;15.67;9.30;;;5.80;99.90;;;;;;6212253;23;20396;-63
2023/12/09 10:39:49;;;;;;;18.23;11.73;;;5.80;99.90;;;;;;6212003;23;20405;-63
2023/12/09 10:42:16;;;;;;;19.03;10.13;;;5.80;99.90;;;;;;6211755;23;20564;-63
2023/12/09 10:44:43;;;;;;;23.83;11.57;;;5.80;99.90;;;;;;6212476;23;20403;-63
2023/12/09 10:47:10;;;;;;;22.63;9.70;;;5.80;99.90;;;;;;6212510;23;20429;-62
2023/12/09 10:49:38;;;;;;;20.43;10.57;;;5.80;99.90;;;;;;6213254;23;20512;-63
2023/12/09 10:52:05;;;;;;;47.03;22.40;;;5.80;99.90;;;;;;6211138;23;20404;-64
2023/12/09 10:54:34;;;;;;;24.50;12.83;;;5.80;99.90;;;;;;6213001;23;20373;-66
2023/12/09 10:57:04;;;;;;;16.80;10.40;;;5.90;99.90;;;;;;6211464;23;20413;-64
2023/12/09 10:59:38;;;;;;;19.20;8.53;;;5.90;99.90;;;;;;6211081;23;20779;-65
2023/12/09 11:02:12;;;;;;;21.97;10.17;;;5.90;99.90;;;;;;6210983;23;20430;-66
2023/12/09 11:04:39;;;;;;;21.83;10.80;;;6.00;99.90;;;;;;6212606;23;20385;-64
2023/12/09 11:07:07;;;;;;;14.57;7.90;;;6.00;99.90;;;;;;6212187;23;20400;-65
2023/12/09 11:09:36;;;;;;;15.50;9.20;;;6.00;99.90;;;;;;6211741;23;20397;-67
2023/12/09 11:12:03;;;;;;;22.37;10.50;;;6.00;99.90;;;;;;6211928;23;20397;-68
2023/12/09 11:14:32;;;;;;;12.00;7.87;;;6.00;99.90;;;;;;6211641;23;20443;-67
2023/12/09 11:17:00;;;;;;;15.70;9.77;;;6.10;99.90;;;;;;6211905;23;20417;-64
2023/12/09 11:19:28;;;;;;;15.60;9.40;;;6.10;99.90;;;;;;6211308;23;20436;-68
2023/12/09 11:21:56;;;;;;;21.90;8.50;;;6.10;99.90;;;;;;6211882;23;20407;-62
2023/12/09 11:24:30;;;;;;;15.00;8.13;;;6.10;99.90;;;;;;6208659;23;20432;-67
2023/12/09 11:26:58;;;;;;;17.63;9.70;;;6.10;99.90;;;;;;6210491;23;20409;-71
2023/12/09 11:29:26;;;;;;;17.77;8.77;;;6.20;99.90;;;;;;6210117;23;20428;-68
2023/12/09 11:31:53;;;;;;;19.07;10.00;;;6.20;99.90;;;;;;6211386;23;20389;-70
2023/12/09 11:34:24;;;;;;;13.90;7.57;;;6.30;99.90;;;;;;6210560;23;20429;-66
2023/12/09 11:36:53;;;;;;;15.93;7.93;;;6.30;99.90;;;;;;6210771;23;20412;-65
2023/12/09 11:39:21;;;;;;;15.10;8.93;;;6.30;99.90;;;;;;6210798;23;20416;-66
2023/12/09 11:41:50;;;;;;;20.33;8.60;;;6.30;99.90;;;;;;6209477;23;20401;-65
2023/12/09 11:44:18;;;;;;;16.03;8.03;;;6.40;99.90;;;;;;6210166;23;20404;-67
2023/12/09 11:46:46;;;;;;;14.13;7.80;;;6.40;99.90;;;;;;6209679;23;20433;-63
2023/12/09 11:49:13;;;;;;;14.00;8.47;;;6.40;99.90;;;;;;6209033;23;20432;-66
2023/12/09 11:51:40;;;;;;;13.20;8.07;;;6.50;99.90;;;;;;6210547;23;20479;-67
2023/12/09 11:54:09;;;;;;;10.60;8.20;;;6.50;99.90;;;;;;6210700;23;20445;-68
2023/12/09 11:56:37;;;;;;;16.93;7.60;;;6.50;99.90;;;;;;6210280;23;20396;-64
2023/12/09 11:59:05;;;;;;;17.00;8.43;;;6.50;99.90;;;;;;6210725;23;20405;-68
2023/12/09 12:01:35;;;;;;;15.40;8.40;;;6.50;99.90;;;;;;6210476;23;20440;-64
2023/12/09 12:04:02;;;;;;;15.67;8.20;;;6.60;99.90;;;;;;6210826;23;20381;-67
2023/12/09 12:06:29;;;;;;;13.40;7.37;;;6.60;99.90;;;;;;6210461;23;20461;-68
2023/12/09 12:08:56;;;;;;;13.80;7.40;;;6.50;99.90;;;;;;6210500;23;20436;-66
2023/12/09 12:11:25;;;;;;;14.30;7.03;;;6.50;99.90;;;;;;6210805;23;20416;-64
2023/12/09 12:13:53;;;;;;;9.60;6.80;;;6.50;99.90;;;;;;6210315;23;20441;-66
2023/12/09 12:16:20;;;;;;;12.10;6.90;;;6.60;99.90;;;;;;6210412;23;20392;-64
2023/12/09 12:18:49;;;;;;;14.23;7.80;;;6.60;99.90;;;;;;6211213;23;20423;-69
2023/12/09 12:21:16;;;;;;;15.53;7.90;;;6.60;99.90;;;;;;6211415;23;20420;-67
2023/12/09 12:23:43;;;;;;;13.63;6.97;;;6.60;99.90;;;;;;6211207;23;20412;-67
2023/12/09 12:26:12;;;;;;;17.67;8.20;;;6.60;99.90;;;;;;6211464;23;20404;-67
2023/12/09 12:28:40;;;;;;;16.90;8.37;;;6.60;99.90;;;;;;6210863;23;20489;-68
2023/12/09 12:31:07;;;;;;;11.30;6.83;;;6.60;99.90;;;;;;6211181;23;20420;-63
2023/12/09 12:33:34;;;;;;;14.50;7.53;;;6.60;99.90;;;;;;6211449;23;20623;-69
2023/12/09 12:36:03;;;;;;;13.13;6.93;;;6.60;99.90;;;;;;6212247;23;20404;-68
2023/12/09 12:38:30;;;;;;;10.43;6.53;;;6.60;99.90;;;;;;6212371;23;20413;-70
2023/12/09 12:40:57;;;;;;;15.90;8.37;;;6.70;99.90;;;;;;6212541;23;20417;-72